createdAt,value
2017-09-22T00:01:32.286Z,14.57
2017-09-22T00:03:59.737Z,13.57
2017-09-22T00:06:27.500Z,12.27
2017-09-22T00:08:55.271Z,12.17
2017-09-22T00:11:22.715Z,13.30
2017-09-22T00:13:50.485Z,13.13
2017-09-22T00:16:18.136Z,13.70
2017-09-22T00:18:45.705Z,13.37
2017-09-22T00:21:13.150Z,12.93
2017-09-22T00:23:40.580Z,12.27
2017-09-22T00:26:08.004Z,11.87
2017-09-22T00:28:35.456Z,11.93
2017-09-22T00:31:02.888Z,12.37
2017-09-22T00:33:30.361Z,13.33
2017-09-22T00:35:57.800Z,12.93
2017-09-22T00:38:25.270Z,10.90
2017-09-22T00:40:52.814Z,13.27
2017-09-22T00:43:20.252Z,12.63
2017-09-22T00:45:47.724Z,11.93
2017-09-22T00:48:15.169Z,11.30
2017-09-22T00:50:42.636Z,11.70
2017-09-22T00:53:10.082Z,11.13
2017-09-22T00:55:37.509Z,9.70
2017-09-22T00:58:05.025Z,11.40
2017-09-22T01:00:32.658Z,10.47
2017-09-22T01:03:00.095Z,10.63
2017-09-22T01:05:27.601Z,11.70
2017-09-22T01:07:55.046Z,11.00
2017-09-22T01:10:22.508Z,10.17
2017-09-22T01:12:50.045Z,11.87
2017-09-22T01:15:17.721Z,11.30
2017-09-22T01:17:45.270Z,12.20
2017-09-22T01:20:12.715Z,11.57
2017-09-22T01:22:40.149Z,11.50
2017-09-22T01:25:07.592Z,11.90
2017-09-22T01:27:35.017Z,9.53
2017-09-22T01:30:02.452Z,10.00
2017-09-22T01:32:29.920Z,10.60
2017-09-22T01:34:57.360Z,9.83
2017-09-22T01:37:24.912Z,11.17
2017-09-22T01:39:52.373Z,10.87
2017-09-22T01:42:20.061Z,10.00
2017-09-22T01:44:48.265Z,11.23
2017-09-22T01:47:15.700Z,11.10
2017-09-22T01:49:43.424Z,11.13
2017-09-22T01:52:11.187Z,11.47
2017-09-22T01:54:38.612Z,11.20
2017-09-22T01:57:06.048Z,12.40
2017-09-22T01:59:33.477Z,10.80
2017-09-22T02:02:00.925Z,11.47
2017-09-22T02:04:28.477Z,10.97
2017-09-22T02:06:56.134Z,10.57
2017-09-22T02:09:23.572Z,10.47
2017-09-22T02:11:51.062Z,11.57
2017-09-22T02:14:18.505Z,10.90
2017-09-22T02:16:45.932Z,11.43
2017-09-22T02:19:13.421Z,10.67
2017-09-22T02:21:40.834Z,13.00
2017-09-22T02:24:08.343Z,11.50
2017-09-22T02:26:35.800Z,12.73
2017-09-22T02:29:03.337Z,13.13
2017-09-22T02:31:30.801Z,12.40
2017-09-22T02:33:58.250Z,13.63
2017-09-22T02:36:25.681Z,11.40
2017-09-22T02:38:53.170Z,11.83
2017-09-22T02:41:20.628Z,10.90
2017-09-22T02:43:48.080Z,12.53
2017-09-22T02:46:15.847Z,9.93
2017-09-22T02:48:43.329Z,11.53
2017-09-22T02:51:10.936Z,9.30
2017-09-22T02:53:38.389Z,10.95
2017-09-22T02:56:05.981Z,10.40
2017-09-22T02:58:33.423Z,11.90
2017-09-22T03:01:00.869Z,11.80
2017-09-22T03:03:28.303Z,11.53
2017-09-22T03:05:55.813Z,11.17
2017-09-22T03:08:23.240Z,10.13
2017-09-22T03:10:50.697Z,9.70
2017-09-22T03:13:18.172Z,10.80
2017-09-22T03:15:45.817Z,10.10
2017-09-22T03:18:13.392Z,10.50
2017-09-22T03:20:40.853Z,9.60
2017-09-22T03:23:08.621Z,11.13
2017-09-22T03:25:36.381Z,10.03
2017-09-22T03:28:03.796Z,10.93
2017-09-22T03:30:31.280Z,9.93
2017-09-22T03:32:58.742Z,10.07
2017-09-22T03:35:26.439Z,9.10
2017-09-22T03:37:53.964Z,9.80
2017-09-22T03:40:21.421Z,10.30
2017-09-22T03:42:48.877Z,11.00
2017-09-22T03:45:16.345Z,9.80
2017-09-22T03:47:44.116Z,10.27
2017-09-22T03:50:11.548Z,9.43
2017-09-22T03:52:38.984Z,9.13
2017-09-22T03:55:06.460Z,9.47
2017-09-22T03:57:34.169Z,9.40
2017-09-22T04:00:01.593Z,9.20
2017-09-22T04:02:29.036Z,10.33
2017-09-22T04:04:56.497Z,9.40
2017-09-22T04:07:23.913Z,9.00
2017-09-22T04:09:51.340Z,9.03
2017-09-22T04:12:18.801Z,9.70
2017-09-22T04:14:46.305Z,10.57
2017-09-22T04:17:13.882Z,9.83
2017-09-22T04:19:41.325Z,10.70
2017-09-22T04:22:08.745Z,11.40
2017-09-22T04:24:36.181Z,9.23
2017-09-22T04:27:03.605Z,9.93
2017-09-22T04:29:31.102Z,10.67
2017-09-22T04:31:58.588Z,10.90
2017-09-22T04:34:26.017Z,9.67
2017-09-22T04:36:53.525Z,8.83
2017-09-22T04:39:21.174Z,10.10
2017-09-22T04:41:48.620Z,10.17
2017-09-22T04:44:16.121Z,10.10
2017-09-22T04:46:43.548Z,10.47
2017-09-22T04:49:11.117Z,11.37
2017-09-22T04:51:38.901Z,9.67
2017-09-22T04:54:06.342Z,10.50
2017-09-22T04:56:34.094Z,9.93
2017-09-22T04:59:01.556Z,10.30
2017-09-22T05:01:28.985Z,9.75
2017-09-22T05:03:56.408Z,12.23
2017-09-22T05:06:24.229Z,10.82
2017-09-22T05:08:51.695Z,10.37
2017-09-22T05:11:19.833Z,11.00
2017-09-22T05:13:47.317Z,11.10
2017-09-22T05:16:14.990Z,11.30
2017-09-22T05:18:42.737Z,10.60
2017-09-22T05:21:10.189Z,9.80
2017-09-22T05:23:37.625Z,10.43
2017-09-22T05:26:05.107Z,9.57
2017-09-22T05:28:32.565Z,11.37
2017-09-22T05:30:59.997Z,9.30
2017-09-22T05:33:27.498Z,9.77
2017-09-22T05:35:55.237Z,9.37
2017-09-22T05:38:22.676Z,10.73
2017-09-22T05:40:50.120Z,9.53
2017-09-22T05:43:17.537Z,9.33
2017-09-22T05:45:44.968Z,9.43
2017-09-22T05:48:12.520Z,9.90
2017-09-22T05:50:39.976Z,9.97
2017-09-22T05:53:07.401Z,10.70
2017-09-22T05:55:34.836Z,11.10
2017-09-22T05:58:02.350Z,10.13
2017-09-22T06:00:29.805Z,9.50
2017-09-22T06:02:57.234Z,8.47
2017-09-22T06:05:24.657Z,8.90
2017-09-22T06:07:52.086Z,10.77
2017-09-22T06:10:19.514Z,10.13
2017-09-22T06:12:46.948Z,11.27
2017-09-22T06:15:14.541Z,10.53
2017-09-22T06:17:42.524Z,10.57
2017-09-22T06:20:09.949Z,11.40
2017-09-22T06:22:37.540Z,12.53
2017-09-22T06:25:05.289Z,12.23
2017-09-22T06:27:32.720Z,13.00
2017-09-22T06:30:00.149Z,12.30
2017-09-22T06:32:27.658Z,12.07
2017-09-22T06:34:55.288Z,12.60
2017-09-22T06:37:22.725Z,11.37
2017-09-22T06:39:50.913Z,11.43
2017-09-22T06:42:18.349Z,12.10
2017-09-22T06:44:45.857Z,11.83
2017-09-22T06:47:13.292Z,11.60
2017-09-22T06:49:40.729Z,12.23
2017-09-22T06:52:08.169Z,11.70
2017-09-22T06:54:35.684Z,11.57
2017-09-22T06:57:03.140Z,11.97
2017-09-22T06:59:30.904Z,12.33
2017-09-22T07:01:58.344Z,11.77
2017-09-22T07:04:25.775Z,13.60
2017-09-22T07:06:53.217Z,13.17
2017-09-22T07:09:20.732Z,12.83
2017-09-22T07:11:48.372Z,15.77
2017-09-22T07:14:15.888Z,13.63
2017-09-22T07:16:43.413Z,14.53
2017-09-22T07:19:11.169Z,15.30
2017-09-22T07:21:38.597Z,14.17
2017-09-22T07:24:06.036Z,16.30
2017-09-22T07:26:33.469Z,15.53
2017-09-22T07:29:01.008Z,15.97
2017-09-22T07:31:28.448Z,14.70
2017-09-22T07:33:55.880Z,15.33
2017-09-22T07:36:23.361Z,14.53
2017-09-22T07:38:50.800Z,16.27
2017-09-22T07:41:18.238Z,16.77
2017-09-22T07:43:45.680Z,15.87
2017-09-22T07:46:13.127Z,16.73
2017-09-22T07:48:40.567Z,14.23
2017-09-22T07:51:08.092Z,15.33
2017-09-22T07:53:35.557Z,14.80
2017-09-22T07:56:03.013Z,14.40
2017-09-22T07:58:30.656Z,16.97
2017-09-22T08:00:58.232Z,18.67
2017-09-22T08:03:25.886Z,15.90
2017-09-22T08:05:53.332Z,16.60
2017-09-22T08:08:20.838Z,18.53
2017-09-22T08:10:48.389Z,17.47
2017-09-22T08:13:16.008Z,16.70
2017-09-22T08:15:43.495Z,17.07
2017-09-22T08:18:11.013Z,16.27
2017-09-22T08:20:38.496Z,16.53
2017-09-22T08:23:06.045Z,16.30
2017-09-22T08:25:33.717Z,18.60
2017-09-22T08:28:01.173Z,16.87
2017-09-22T08:30:28.808Z,16.60
2017-09-22T08:32:56.285Z,16.30
2017-09-22T08:35:23.731Z,17.33
2017-09-22T08:37:51.309Z,15.70
2017-09-22T08:40:18.768Z,18.27
2017-09-22T08:42:46.416Z,16.07
2017-09-22T08:45:13.857Z,17.07
2017-09-22T08:47:41.287Z,15.37
2017-09-22T08:50:09.513Z,15.40
2017-09-22T08:52:36.945Z,16.80
2017-09-22T08:55:04.388Z,17.03
2017-09-22T08:57:31.816Z,16.30
2017-09-22T08:59:59.336Z,18.53
2017-09-22T09:02:26.965Z,15.73
2017-09-22T09:04:54.536Z,16.03
2017-09-22T09:07:22.009Z,17.20
2017-09-22T09:09:49.467Z,18.20
2017-09-22T09:12:16.900Z,17.55
2017-09-22T09:14:44.381Z,19.10
2017-09-22T09:17:12.017Z,16.43
2017-09-22T09:19:39.616Z,15.07
2017-09-22T09:22:07.229Z,16.10
2017-09-22T09:24:34.707Z,15.30
2017-09-22T09:27:02.177Z,16.50
2017-09-22T09:29:29.640Z,18.43
2017-09-22T09:31:57.188Z,16.70
2017-09-22T09:34:24.625Z,18.13
2017-09-22T09:36:52.062Z,18.73
2017-09-22T09:39:19.560Z,16.80
2017-09-22T09:41:47.197Z,16.33
2017-09-22T09:44:14.772Z,17.43
2017-09-22T09:46:42.228Z,16.20
2017-09-22T09:49:09.669Z,17.63
2017-09-22T09:51:37.169Z,15.83
2017-09-22T09:54:04.913Z,17.27
2017-09-22T09:56:32.357Z,17.47
2017-09-22T09:58:59.781Z,16.87
2017-09-22T10:01:27.281Z,16.53
2017-09-22T10:03:54.708Z,17.67
2017-09-22T10:06:22.189Z,15.60
2017-09-22T10:08:49.617Z,15.57
2017-09-22T10:11:17.052Z,15.17
2017-09-22T10:13:44.557Z,16.00
2017-09-22T10:16:12.213Z,15.17
2017-09-22T10:18:39.689Z,15.80
2017-09-22T10:21:07.121Z,14.20
2017-09-22T10:23:34.689Z,16.60
2017-09-22T10:26:02.130Z,15.00
2017-09-22T10:28:29.608Z,15.57
2017-09-22T10:30:57.052Z,15.37
2017-09-22T10:33:24.517Z,14.07
2017-09-22T10:35:52.157Z,14.53
2017-09-22T10:38:19.641Z,16.00
2017-09-22T10:40:47.200Z,15.60
2017-09-22T10:43:14.833Z,15.50
2017-09-22T10:45:42.289Z,16.37
2017-09-22T10:48:09.729Z,15.70
2017-09-22T10:50:37.330Z,16.80
2017-09-22T10:53:04.967Z,15.95
2017-09-22T10:55:32.453Z,15.63
2017-09-22T10:58:00.040Z,17.57
2017-09-22T11:00:28.968Z,15.07
2017-09-22T11:02:56.426Z,16.20
2017-09-22T11:05:23.853Z,16.07
2017-09-22T11:07:51.365Z,14.70
2017-09-22T11:10:18.853Z,16.17
2017-09-22T11:12:46.296Z,17.40
2017-09-22T11:15:15.245Z,13.43
2017-09-22T11:17:42.725Z,15.60
2017-09-22T11:20:10.181Z,17.00
2017-09-22T11:22:37.630Z,16.33
2017-09-22T11:25:05.082Z,15.40
2017-09-22T11:27:32.501Z,14.50
2017-09-22T11:29:59.937Z,15.10
2017-09-22T11:32:27.380Z,16.27
2017-09-22T11:34:54.816Z,16.37
2017-09-22T11:37:22.268Z,16.03
2017-09-22T11:39:49.877Z,16.67
2017-09-22T11:42:17.597Z,13.20
2017-09-22T11:44:45.036Z,13.60
2017-09-22T11:47:12.485Z,14.37
2017-09-22T11:49:39.937Z,13.93
2017-09-22T11:52:07.372Z,14.33
2017-09-22T11:54:34.873Z,14.30
2017-09-22T11:57:02.325Z,15.93
2017-09-22T11:59:29.777Z,17.00
2017-09-22T12:01:57.220Z,14.83
2017-09-22T12:04:24.680Z,13.40
2017-09-22T12:06:52.165Z,15.50
2017-09-22T12:09:19.620Z,14.80
2017-09-22T12:11:47.253Z,11.97
2017-09-22T12:14:14.756Z,14.27
2017-09-22T12:16:42.192Z,13.57
2017-09-22T12:19:09.668Z,14.07
2017-09-22T12:21:37.159Z,14.33
2017-09-22T12:24:04.573Z,14.37
2017-09-22T12:26:32.116Z,13.83
2017-09-22T12:28:59.771Z,12.40
2017-09-22T12:31:27.333Z,13.30
2017-09-22T12:33:54.784Z,15.47
2017-09-22T12:36:22.281Z,13.70
2017-09-22T12:38:49.702Z,13.20
2017-09-22T12:41:17.132Z,16.50
2017-09-22T12:43:44.649Z,15.37
2017-09-22T12:46:12.248Z,14.10
2017-09-22T12:48:39.832Z,13.93
2017-09-22T12:51:07.289Z,14.27
2017-09-22T12:53:34.792Z,12.43
2017-09-22T12:56:02.429Z,12.30
2017-09-22T12:58:29.968Z,9.80
2017-09-22T13:00:57.601Z,11.63
2017-09-22T13:03:25.131Z,12.30
2017-09-22T13:05:53.329Z,11.20
2017-09-22T13:08:20.907Z,11.90
2017-09-22T13:10:48.385Z,12.00
2017-09-22T13:13:15.872Z,12.20
2017-09-22T13:15:43.314Z,12.17
2017-09-22T13:18:10.857Z,11.33
2017-09-22T13:20:38.296Z,11.27
2017-09-22T13:23:05.721Z,11.23
2017-09-22T13:25:34.132Z,10.27
2017-09-22T13:28:01.569Z,10.60
2017-09-22T13:30:29.005Z,11.40
2017-09-22T13:32:57.212Z,11.50
2017-09-22T13:35:24.771Z,11.90
2017-09-22T13:37:53.137Z,11.63
2017-09-22T13:40:20.656Z,11.10
2017-09-22T13:42:48.079Z,10.90
2017-09-22T13:45:15.532Z,12.67
2017-09-22T13:47:42.961Z,12.53
2017-09-22T13:50:10.425Z,10.30
2017-09-22T13:52:37.869Z,11.13
2017-09-22T13:55:05.370Z,11.17
2017-09-22T13:57:32.908Z,11.23
2017-09-22T14:00:00.342Z,11.80
2017-09-22T14:02:27.760Z,11.00
2017-09-22T14:04:55.277Z,12.57
2017-09-22T14:07:22.701Z,11.70
2017-09-22T14:09:50.185Z,12.60
2017-09-22T14:12:17.618Z,11.80
2017-09-22T14:14:45.068Z,11.97
2017-09-22T14:17:13.112Z,11.10
2017-09-22T14:19:40.548Z,11.60
2017-09-22T14:22:08.089Z,9.67
2017-09-22T14:24:35.858Z,10.20
2017-09-22T14:27:03.287Z,10.00
2017-09-22T14:29:30.764Z,10.70
2017-09-22T14:31:58.211Z,9.90
2017-09-22T14:34:25.650Z,11.10
2017-09-22T14:36:53.076Z,11.90
2017-09-22T14:39:20.496Z,11.80
2017-09-22T14:41:48.045Z,11.53
2017-09-22T14:44:15.538Z,10.70
2017-09-22T14:46:43.181Z,10.30
2017-09-22T14:49:10.609Z,10.90
2017-09-22T14:51:38.063Z,10.37
2017-09-22T14:54:05.665Z,11.10
2017-09-22T14:56:33.413Z,9.73
2017-09-22T14:59:00.862Z,10.80
2017-09-22T15:01:29.140Z,11.83
2017-09-22T15:03:56.593Z,11.10
2017-09-22T15:06:24.148Z,11.57
2017-09-22T15:08:51.908Z,11.40
2017-09-22T15:11:19.660Z,10.80
2017-09-22T15:13:47.125Z,10.57
2017-09-22T15:16:14.556Z,10.37
2017-09-22T15:18:41.988Z,10.43
2017-09-22T15:21:09.431Z,10.63
2017-09-22T15:23:36.948Z,11.23
2017-09-22T15:26:04.388Z,11.10
2017-09-22T15:28:31.824Z,11.33
2017-09-22T15:30:59.357Z,11.00
2017-09-22T15:33:26.988Z,12.13
2017-09-22T15:35:54.485Z,10.13
2017-09-22T15:38:21.986Z,12.13
2017-09-22T15:40:49.431Z,12.20
2017-09-22T15:43:16.857Z,9.47
2017-09-22T15:45:44.294Z,10.87
2017-09-22T15:48:11.728Z,11.30
2017-09-22T15:50:39.265Z,9.77
2017-09-22T15:53:06.738Z,10.07
2017-09-22T15:55:34.179Z,10.40
2017-09-22T15:58:01.616Z,10.30
2017-09-22T16:00:29.101Z,10.80
2017-09-22T16:02:56.568Z,9.70
2017-09-22T16:05:24.193Z,11.00
2017-09-22T16:07:51.688Z,9.03
2017-09-22T16:10:19.149Z,9.20
2017-09-22T16:12:46.685Z,9.40
2017-09-22T16:15:14.149Z,10.13
2017-09-22T16:17:41.609Z,10.70
2017-09-22T16:20:09.036Z,9.80
2017-09-22T16:22:36.520Z,9.27
2017-09-22T16:25:03.980Z,9.67
2017-09-22T16:27:31.419Z,10.33
2017-09-22T16:29:58.884Z,10.23
2017-09-22T16:32:26.528Z,9.40
2017-09-22T16:34:54.009Z,9.90
2017-09-22T16:37:21.445Z,8.60
2017-09-22T16:39:49.041Z,10.03
2017-09-22T16:42:16.472Z,11.90
2017-09-22T16:44:43.938Z,12.00
2017-09-22T16:47:11.390Z,11.43
2017-09-22T16:49:38.821Z,10.73
2017-09-22T16:52:06.269Z,11.57
2017-09-22T16:54:33.773Z,11.57
2017-09-22T16:57:01.232Z,10.83
2017-09-22T16:59:28.653Z,11.10
2017-09-22T17:01:56.120Z,12.30
2017-09-22T17:04:23.553Z,10.43
2017-09-22T17:06:51.029Z,11.50
2017-09-22T17:09:18.467Z,11.00
2017-09-22T17:11:45.921Z,11.97
2017-09-22T17:14:13.405Z,10.90
2017-09-22T17:16:40.847Z,11.10
2017-09-22T17:19:08.272Z,12.03
2017-09-22T17:21:35.710Z,10.97
2017-09-22T17:24:03.193Z,11.03
2017-09-22T17:26:30.690Z,10.70
2017-09-22T17:28:58.126Z,10.20
2017-09-22T17:31:25.613Z,9.87
2017-09-22T17:33:53.238Z,8.83
2017-09-22T17:36:20.809Z,11.20
2017-09-22T17:38:48.249Z,11.07
2017-09-22T17:41:15.689Z,11.33
2017-09-22T17:43:43.136Z,10.63
2017-09-22T17:46:10.568Z,10.83
2017-09-22T17:48:38.102Z,11.93
2017-09-22T17:51:05.569Z,10.20
2017-09-22T17:53:33.014Z,10.30
2017-09-22T17:56:00.444Z,9.43
2017-09-22T17:58:27.877Z,10.27
2017-09-22T18:00:55.377Z,10.03
2017-09-22T18:03:22.816Z,10.90
2017-09-22T18:05:50.245Z,11.53
2017-09-22T18:08:17.701Z,10.87
2017-09-22T18:10:45.205Z,13.00
2017-09-22T18:13:12.639Z,9.77
2017-09-22T18:15:40.116Z,9.07
2017-09-22T18:18:07.565Z,13.60
2017-09-22T18:20:35.036Z,16.50
2017-09-22T18:23:02.515Z,16.03
2017-09-22T18:25:30.249Z,17.63
2017-09-22T18:27:57.893Z,12.47
2017-09-22T18:30:25.520Z,12.90
2017-09-22T18:32:53.149Z,12.67
2017-09-22T18:35:20.597Z,14.60
2017-09-22T18:37:48.022Z,15.03
2017-09-22T18:40:15.600Z,14.53
2017-09-22T18:42:43.062Z,14.17
2017-09-22T18:45:10.497Z,15.90
2017-09-22T18:47:37.917Z,13.90
2017-09-22T18:50:05.356Z,13.87
2017-09-22T18:52:32.789Z,14.17
2017-09-22T18:55:00.341Z,15.50
2017-09-22T18:57:27.765Z,15.60
2017-09-22T18:59:55.251Z,15.37
2017-09-22T19:02:22.676Z,14.77
2017-09-22T19:04:50.117Z,14.40
2017-09-22T19:07:17.553Z,12.33
2017-09-22T19:09:45.076Z,18.77
2017-09-22T19:12:12.513Z,20.17
2017-09-22T19:14:39.989Z,21.53
2017-09-22T19:17:07.767Z,24.00
2017-09-22T19:19:35.513Z,20.43
2017-09-22T19:22:02.980Z,17.10
2017-09-22T19:24:30.733Z,14.60
2017-09-22T19:26:58.161Z,17.57
2017-09-22T19:29:25.608Z,16.57
2017-09-22T19:31:53.028Z,18.03
2017-09-22T19:34:20.479Z,16.07
2017-09-22T19:36:48.022Z,19.33
2017-09-22T19:39:15.667Z,15.77
2017-09-22T19:41:43.156Z,18.17
2017-09-22T19:44:10.597Z,16.90
2017-09-22T19:46:38.172Z,18.53
2017-09-22T19:49:05.794Z,22.57
2017-09-22T19:51:33.268Z,25.70
2017-09-22T19:54:00.718Z,26.27
2017-09-22T19:56:28.184Z,19.00
2017-09-22T19:58:55.624Z,17.63
2017-09-22T20:01:23.189Z,15.70
2017-09-22T20:03:50.829Z,16.00
2017-09-22T20:06:18.329Z,16.07
2017-09-22T20:08:45.872Z,15.63
2017-09-22T20:11:13.325Z,17.13
2017-09-22T20:13:40.756Z,18.30
2017-09-22T20:16:08.236Z,17.40
2017-09-22T20:18:35.664Z,15.87
2017-09-22T20:21:03.106Z,17.53
2017-09-22T20:23:30.617Z,17.33
2017-09-22T20:25:58.056Z,16.40
2017-09-22T20:28:25.484Z,18.07
2017-09-22T20:30:52.976Z,18.47
2017-09-22T20:33:20.436Z,18.67
2017-09-22T20:35:47.881Z,17.53
2017-09-22T20:38:15.344Z,17.57
2017-09-22T20:40:43.105Z,19.70
2017-09-22T20:43:10.564Z,17.97
2017-09-22T20:45:38.014Z,17.63
2017-09-22T20:48:05.441Z,17.93
2017-09-22T20:50:32.930Z,18.17
2017-09-22T20:53:00.365Z,16.70
2017-09-22T20:55:27.844Z,17.80
2017-09-22T20:57:55.613Z,18.30
2017-09-22T21:00:23.073Z,18.97
2017-09-22T21:02:50.516Z,17.07
2017-09-22T21:05:17.980Z,15.23
2017-09-22T21:07:45.746Z,17.30
2017-09-22T21:10:13.517Z,17.67
2017-09-22T21:12:40.960Z,16.40
2017-09-22T21:15:08.729Z,17.23
2017-09-22T21:17:36.152Z,17.00
2017-09-22T21:20:03.588Z,16.80
2017-09-22T21:22:31.016Z,15.40
2017-09-22T21:24:58.458Z,15.23
2017-09-22T21:27:25.989Z,15.63
2017-09-22T21:29:53.417Z,17.27
2017-09-22T21:32:20.857Z,18.60
2017-09-22T21:34:48.286Z,15.63
2017-09-22T21:37:15.809Z,14.77
2017-09-22T21:39:43.242Z,16.67
2017-09-22T21:42:10.752Z,15.63
2017-09-22T21:44:38.381Z,15.70
2017-09-22T21:47:05.844Z,14.47
2017-09-22T21:49:33.344Z,15.63
2017-09-22T21:52:00.788Z,17.60
2017-09-22T21:54:28.237Z,15.57
2017-09-22T21:56:55.785Z,16.83
2017-09-22T21:59:23.212Z,15.50
2017-09-22T22:01:50.697Z,16.00
2017-09-22T22:04:23.779Z,16.90
2017-09-22T22:06:57.164Z,17.00
2017-09-22T22:09:24.661Z,16.70
2017-09-22T22:11:52.142Z,18.07
2017-09-22T22:14:19.558Z,16.73
2017-09-22T22:16:47.021Z,17.17
2017-09-22T22:19:14.929Z,15.03
2017-09-22T22:21:42.537Z,15.53
2017-09-22T22:24:09.965Z,17.93
2017-09-22T22:26:37.549Z,16.87
2017-09-22T22:29:04.973Z,16.00
2017-09-22T22:31:32.460Z,14.60
2017-09-22T22:34:00.088Z,14.97
2017-09-22T22:36:28.613Z,17.27
2017-09-22T22:38:56.041Z,16.27
2017-09-22T22:41:23.472Z,13.57
2017-09-22T22:43:51.765Z,14.67
2017-09-22T22:46:19.317Z,15.03
2017-09-22T22:48:46.751Z,15.23
2017-09-22T22:51:14.266Z,15.43
2017-09-22T22:53:41.928Z,14.60
2017-09-22T22:56:09.388Z,16.43
2017-09-22T22:58:36.832Z,14.93
2017-09-22T23:01:04.268Z,15.57
2017-09-22T23:03:31.863Z,16.43
2017-09-22T23:05:59.288Z,16.43
2017-09-22T23:08:26.733Z,16.30
2017-09-22T23:10:54.233Z,16.87
2017-09-22T23:13:21.870Z,17.60
2017-09-22T23:15:49.444Z,17.23
2017-09-22T23:18:16.880Z,16.70
2017-09-22T23:20:44.348Z,14.93
2017-09-22T23:23:11.808Z,15.80
2017-09-22T23:25:39.242Z,15.90
2017-09-22T23:28:06.676Z,15.10
2017-09-22T23:30:35.108Z,15.03
2017-09-22T23:33:02.562Z,16.40
2017-09-22T23:35:29.989Z,15.57
2017-09-22T23:37:57.472Z,15.20
2017-09-22T23:40:24.932Z,16.00
2017-09-22T23:42:52.374Z,14.43
2017-09-22T23:45:19.809Z,15.60
2017-09-22T23:47:47.248Z,16.80
2017-09-22T23:50:14.755Z,14.57
2017-09-22T23:52:42.211Z,18.37
2017-09-22T23:55:09.849Z,19.37
2017-09-22T23:57:37.341Z,22.83
